Time;durP1;ratioP1;P1;durP2;ratioP2;P2;SDS_P1;SDS_P2;PMS_P1;PMS_P2;Temp;Humidity;BMP_temperature;BMP_pressure;BME280_temperature;BME280_humidity;BME280_pressure;Samples;Min_cycle;Max_cycle;Signal;HPM_P1;HPM_P2
2022/08/03 00:01:05;;;;;;;18.98;4.15;;;;;;;;;;5031885;28;20498;-74
2022/08/03 00:03:31;;;;;;;14.63;4.20;;;;;;;;;;5025619;28;20040;-74
2022/08/03 00:05:56;;;;;;;18.17;4.13;;;;;;;;;;5029886;28;20494;-75
2022/08/03 00:08:24;;;;;;;19.77;3.70;;;;;;;;;;5029784;28;20047;-74
2022/08/03 00:10:50;;;;;;;17.02;3.60;;;;;;;;;;5030935;28;20044;-75
2022/08/03 00:13:15;;;;;;;20.63;3.85;;;;;;;;;;5031084;28;20072;-73
2022/08/03 00:15:42;;;;;;;21.83;3.90;;;;;;;;;;5031041;28;20063;-75
2022/08/03 00:18:11;;;;;;;24.05;5.30;;;;;;;;;;5032687;28;20034;-75
2022/08/03 00:20:36;;;;;;;17.65;3.70;;;;;;;;;;5040350;28;20036;-74
2022/08/03 00:23:02;;;;;;;18.38;3.50;;;;;;;;;;5038096;28;20495;-75
2022/08/03 00:25:30;;;;;;;16.20;3.40;;;;;;;;;;5032775;28;20040;-73
2022/08/03 00:27:55;;;;;;;20.52;3.80;;;;;;;;;;5039597;28;20068;-74
2022/08/03 00:30:20;;;;;;;16.73;3.90;;;;;;;;;;5040182;28;20035;-75
2022/08/03 00:32:46;;;;;;;21.70;4.30;;;;;;;;;;5040704;28;20037;-74
2022/08/03 00:35:11;;;;;;;21.50;3.80;;;;;;;;;;5042498;28;20067;-74
2022/08/03 00:37:37;;;;;;;23.33;4.53;;;;;;;;;;5036722;28;20025;-75
2022/08/03 00:40:02;;;;;;;20.52;4.28;;;;;;;;;;5025919;28;20443;-74
2022/08/03 00:42:28;;;;;;;20.90;4.10;;;;;;;;;;5035562;28;20037;-73
2022/08/03 00:44:53;;;;;;;19.55;4.85;;;;;;;;;;5026886;28;20028;-73
2022/08/03 00:47:19;;;;;;;24.90;4.28;;;;;;;;;;5028535;28;20068;-73
2022/08/03 00:49:44;;;;;;;25.65;4.90;;;;;;;;;;5027315;28;20120;-72
2022/08/03 00:52:12;;;;;;;16.90;4.15;;;;;;;;;;5030599;28;20092;-73
2022/08/03 00:54:38;;;;;;;23.55;6.45;;;;;;;;;;5033901;28;20032;-74
2022/08/03 00:57:07;;;;;;;28.52;7.13;;;;;;;;;;5033351;28;20367;-73
2022/08/03 00:59:33;;;;;;;23.83;9.10;;;;;;;;;;5029457;28;20587;-73
2022/08/03 01:01:58;;;;;;;30.40;8.20;;;;;;;;;;5028712;28;20040;-74
2022/08/03 01:04:24;;;;;;;19.52;4.80;;;;;;;;;;5019241;28;20089;-73
2022/08/03 01:06:54;;;;;;;22.85;5.13;;;;;;;;;;5034131;28;20525;-73
2022/08/03 01:09:31;;;;;;;27.33;6.75;;;;;;;;;;5027841;28;20036;-75
2022/08/03 01:12:02;;;;;;;20.98;5.00;;;;;;;;;;5030268;28;20148;-73
2022/08/03 01:14:28;;;;;;;18.92;4.72;;;;;;;;;;5030597;28;20047;-73
2022/08/03 01:16:56;;;;;;;17.08;4.30;;;;;;;;;;5045664;28;20139;-73
2022/08/03 01:19:38;;;;;;;19.92;4.40;;;;;;;;;;5034256;28;20373;-73
2022/08/03 01:22:16;;;;;;;22.50;4.40;;;;;;;;;;5028760;28;20044;-73
2022/08/03 01:25:00;;;;;;;24.65;4.65;;;;;;;;;;5030233;28;20117;-72
2022/08/03 01:27:34;;;;;;;23.88;4.65;;;;;;;;;;5033394;28;20072;-73
2022/08/03 01:30:06;;;;;;;22.83;5.40;;;;;;;;;;5037041;28;20095;-74
2022/08/03 01:32:51;;;;;;;25.10;4.68;;;;;;;;;;5037785;28;20743;-74
2022/08/03 01:35:24;;;;;;;21.55;4.18;;;;;;;;;;5040466;28;20045;-74
2022/08/03 01:37:57;;;;;;;15.55;4.10;;;;;;;;;;5037118;28;20032;-75
2022/08/03 01:40:25;;;;;;;21.13;4.10;;;;;;;;;;5030674;28;20066;-75
2022/08/03 01:42:51;;;;;;;20.77;4.57;;;;;;;;;;5031745;28;20036;-75
2022/08/03 01:45:17;;;;;;;18.58;4.20;;;;;;;;;;5032485;28;20461;-74
2022/08/03 01:47:44;;;;;;;22.90;4.43;;;;;;;;;;5052516;28;20029;-76
2022/08/03 01:50:10;;;;;;;21.25;4.28;;;;;;;;;;5035537;28;20529;-74
2022/08/03 01:52:40;;;;;;;26.35;4.60;;;;;;;;;;5037218;28;20035;-74
2022/08/03 01:55:08;;;;;;;23.38;4.47;;;;;;;;;;5021713;28;20043;-74
2022/08/03 01:57:38;;;;;;;25.27;4.47;;;;;;;;;;5031515;28;20025;-75
2022/08/03 02:00:05;;;;;;;19.30;4.57;;;;;;;;;;5032019;28;20059;-74
2022/08/03 02:02:31;;;;;;;24.40;5.13;;;;;;;;;;5035615;28;20036;-75
2022/08/03 02:04:57;;;;;;;18.83;4.60;;;;;;;;;;5030186;28;20523;-74
2022/08/03 02:07:23;;;;;;;20.80;4.68;;;;;;;;;;5049436;28;20032;-74
2022/08/03 02:09:52;;;;;;;24.52;4.40;;;;;;;;;;5031387;28;20550;-75
2022/08/03 02:12:19;;;;;;;22.67;4.28;;;;;;;;;;5033581;28;20037;-74
2022/08/03 02:14:47;;;;;;;20.73;5.20;;;;;;;;;;5029929;28;20405;-74
2022/08/03 02:17:13;;;;;;;21.48;4.80;;;;;;;;;;5030987;28;20733;-75
2022/08/03 02:19:39;;;;;;;16.50;4.90;;;;;;;;;;5036111;28;20118;-75
2022/08/03 02:22:07;;;;;;;20.92;4.28;;;;;;;;;;5046729;28;21774;-74
2022/08/03 02:24:32;;;;;;;22.10;4.90;;;;;;;;;;5040252;28;20032;-72
2022/08/03 02:26:59;;;;;;;20.08;4.10;;;;;;;;;;5035291;28;20036;-75
2022/08/03 02:29:26;;;;;;;21.08;4.32;;;;;;;;;;5036220;28;20115;-74
2022/08/03 02:31:53;;;;;;;26.38;5.72;;;;;;;;;;5036237;28;20301;-75
2022/08/03 02:34:20;;;;;;;27.90;4.60;;;;;;;;;;5037557;28;20581;-72
2022/08/03 02:36:49;;;;;;;22.17;4.60;;;;;;;;;;5041412;28;20068;-73
2022/08/03 02:39:16;;;;;;;20.67;5.10;;;;;;;;;;5035733;28;20080;-73
2022/08/03 02:41:43;;;;;;;22.25;4.72;;;;;;;;;;5034188;28;20305;-73
2022/08/03 02:44:10;;;;;;;18.88;5.28;;;;;;;;;;5033868;28;20190;-73
2022/08/03 02:46:38;;;;;;;19.00;4.95;;;;;;;;;;5037080;28;20041;-72
2022/08/03 02:49:05;;;;;;;24.80;4.85;;;;;;;;;;5022615;28;20415;-74
2022/08/03 02:51:32;;;;;;;21.42;4.85;;;;;;;;;;5045263;28;20119;-74
2022/08/03 02:54:01;;;;;;;23.10;4.95;;;;;;;;;;5043489;28;20129;-74
2022/08/03 02:56:27;;;;;;;23.30;4.97;;;;;;;;;;5045356;28;20234;-74
2022/08/03 02:58:53;;;;;;;24.80;5.05;;;;;;;;;;5047559;28;20296;-74
2022/08/03 03:01:20;;;;;;;26.20;5.15;;;;;;;;;;5039584;28;20041;-74
2022/08/03 03:03:47;;;;;;;27.40;5.45;;;;;;;;;;5040734;28;20025;-74
2022/08/03 03:06:14;;;;;;;26.00;5.88;;;;;;;;;;5044118;28;20047;-74
2022/08/03 03:08:39;;;;;;;33.50;6.75;;;;;;;;;;5047488;28;20036;-75
2022/08/03 03:11:08;;;;;;;22.45;5.80;;;;;;;;;;5036947;28;20047;-73
2022/08/03 03:13:34;;;;;;;29.00;7.15;;;;;;;;;;5072747;27;20106;-74
2022/08/03 03:16:02;;;;;;;26.77;7.13;;;;;;;;;;5032251;28;20148;-73
2022/08/03 03:18:28;;;;;;;30.85;6.10;;;;;;;;;;5032716;28;20691;-72
2022/08/03 03:20:54;;;;;;;23.83;5.32;;;;;;;;;;5032976;28;20403;-73
2022/08/03 03:23:20;;;;;;;25.83;5.80;;;;;;;;;;5035406;28;20047;-73
2022/08/03 03:25:46;;;;;;;23.80;5.32;;;;;;;;;;5036878;28;20175;-73
2022/08/03 03:28:11;;;;;;;22.08;5.95;;;;;;;;;;5043989;28;20484;-71
2022/08/03 03:30:37;;;;;;;30.20;5.40;;;;;;;;;;5044511;28;20489;-74
2022/08/03 03:33:05;;;;;;;26.88;4.82;;;;;;;;;;5052820;28;20574;-74
2022/08/03 03:35:31;;;;;;;23.73;5.53;;;;;;;;;;5049601;28;20098;-74
2022/08/03 03:37:56;;;;;;;21.13;4.82;;;;;;;;;;5048430;28;20561;-75
2022/08/03 03:40:22;;;;;;;27.17;4.93;;;;;;;;;;5047079;28;20180;-73
2022/08/03 03:42:48;;;;;;;23.45;5.25;;;;;;;;;;5047561;28;20592;-74
2022/08/03 03:45:14;;;;;;;24.45;5.40;;;;;;;;;;5047695;28;20115;-73
2022/08/03 03:47:39;;;;;;;20.38;5.22;;;;;;;;;;5049827;28;20032;-74
2022/08/03 03:50:05;;;;;;;20.65;4.72;;;;;;;;;;5043424;28;20051;-74
2022/08/03 03:52:34;;;;;;;29.35;5.13;;;;;;;;;;5047885;28;20044;-74
2022/08/03 03:54:59;;;;;;;22.10;4.93;;;;;;;;;;5046091;28;20036;-74
2022/08/03 03:57:25;;;;;;;27.10;5.35;;;;;;;;;;5063246;28;20460;-75
2022/08/03 03:59:50;;;;;;;23.23;5.15;;;;;;;;;;5038125;28;20062;-73
2022/08/03 04:02:18;;;;;;;21.70;4.63;;;;;;;;;;5045631;28;20497;-74
2022/08/03 04:13:04;;;;;;;25.55;4.78;;;;;;;;;;5046014;28;20076;-74
2022/08/03 04:15:30;;;;;;;26.27;5.05;;;;;;;;;;5042330;28;21639;-75
2022/08/03 04:17:57;;;;;;;22.67;5.57;;;;;;;;;;5041994;28;20362;-74
2022/08/03 04:20:26;;;;;;;26.80;5.13;;;;;;;;;;5042981;28;20033;-73
2022/08/03 04:22:53;;;;;;;24.60;4.95;;;;;;;;;;5034706;28;20058;-75
2022/08/03 04:25:20;;;;;;;27.83;5.90;;;;;;;;;;5048839;28;20035;-75
2022/08/03 04:27:46;;;;;;;27.52;5.10;;;;;;;;;;5046019;28;20025;-76
2022/08/03 04:30:12;;;;;;;24.13;5.40;;;;;;;;;;5061929;28;20109;-75
2022/08/03 04:32:37;;;;;;;27.13;5.30;;;;;;;;;;5045090;28;20050;-76
2022/08/03 04:35:03;;;;;;;30.17;5.70;;;;;;;;;;5048844;28;20052;-74
2022/08/03 04:37:44;;;;;;;34.53;6.07;;;;;;;;;;5058662;28;20394;-74
2022/08/03 04:40:13;;;;;;;27.30;5.57;;;;;;;;;;5048573;28;20050;-74
2022/08/03 04:42:39;;;;;;;26.27;5.60;;;;;;;;;;5046783;28;20029;-75
2022/08/03 04:45:05;;;;;;;22.67;5.47;;;;;;;;;;5048877;28;20033;-75
2022/08/03 04:47:34;;;;;;;25.23;5.35;;;;;;;;;;5040291;28;20029;-75
2022/08/03 04:50:00;;;;;;;31.40;5.63;;;;;;;;;;5043174;28;20708;-75
2022/08/03 04:52:26;;;;;;;23.98;5.32;;;;;;;;;;5044957;28;20509;-73
2022/08/03 04:54:53;;;;;;;28.85;5.50;;;;;;;;;;5048787;28;20044;-73
2022/08/03 04:57:19;;;;;;;24.52;5.55;;;;;;;;;;5054780;28;20124;-74
2022/08/03 04:59:45;;;;;;;24.08;5.10;;;;;;;;;;5046668;28;20044;-74
2022/08/03 05:02:10;;;;;;;22.45;5.10;;;;;;;;;;5053008;28;20029;-74
2022/08/03 05:04:39;;;;;;;26.58;5.50;;;;;;;;;;5040290;28;20037;-72
2022/08/03 05:07:04;;;;;;;27.20;5.45;;;;;;;;;;5056281;28;20153;-75
2022/08/03 05:09:30;;;;;;;21.77;5.60;;;;;;;;;;5042930;28;20037;-75
2022/08/03 05:11:55;;;;;;;28.92;5.47;;;;;;;;;;5060702;28;20082;-74
2022/08/03 05:14:20;;;;;;;26.92;5.30;;;;;;;;;;5045746;28;20578;-74
2022/08/03 05:16:48;;;;;;;22.88;4.72;;;;;;;;;;5048812;28;20067;-74
2022/08/03 05:19:14;;;;;;;26.98;5.60;;;;;;;;;;5044726;28;20460;-74
2022/08/03 05:21:39;;;;;;;25.48;5.30;;;;;;;;;;5042774;28;20033;-74
2022/08/03 05:24:04;;;;;;;27.73;5.80;;;;;;;;;;5059741;28;20116;-76
2022/08/03 05:26:30;;;;;;;30.35;5.82;;;;;;;;;;5050640;28;20120;-75
2022/08/03 05:28:55;;;;;;;22.90;5.53;;;;;;;;;;5050414;28;20082;-74
2022/08/03 05:31:21;;;;;;;27.63;5.40;;;;;;;;;;5052035;28;20162;-73
2022/08/03 05:33:47;;;;;;;27.80;5.63;;;;;;;;;;5037871;28;20041;-76
2022/08/03 05:36:13;;;;;;;22.90;5.50;;;;;;;;;;5048241;28;20123;-74
2022/08/03 05:38:38;;;;;;;31.33;5.45;;;;;;;;;;5051755;28;20039;-75
2022/08/03 05:41:04;;;;;;;26.85;5.00;;;;;;;;;;5060263;28;20032;-74
2022/08/03 05:43:32;;;;;;;33.53;5.32;;;;;;;;;;5063892;28;20516;-72
2022/08/03 05:45:59;;;;;;;26.42;5.93;;;;;;;;;;5068949;28;20028;-73
2022/08/03 05:48:25;;;;;;;26.40;6.00;;;;;;;;;;5068752;28;20064;-74
2022/08/03 05:50:50;;;;;;;25.13;6.00;;;;;;;;;;5048513;28;20029;-73
2022/08/03 05:53:16;;;;;;;29.85;6.18;;;;;;;;;;5034199;28;20044;-72
2022/08/03 05:55:41;;;;;;;27.50;5.60;;;;;;;;;;5036602;28;20044;-73
2022/08/03 05:58:07;;;;;;;30.13;5.82;;;;;;;;;;5048495;28;20427;-73
2022/08/03 06:00:32;;;;;;;29.10;5.22;;;;;;;;;;5061094;28;20097;-73
2022/08/03 06:02:58;;;;;;;35.75;5.65;;;;;;;;;;5049982;28;20116;-73
2022/08/03 06:05:26;;;;;;;26.73;5.15;;;;;;;;;;5045112;28;20044;-73
2022/08/03 06:07:51;;;;;;;29.95;5.18;;;;;;;;;;5031578;28;20268;-71
2022/08/03 06:10:17;;;;;;;28.05;5.57;;;;;;;;;;5032250;28;20039;-72
2022/08/03 06:12:48;;;;;;;31.65;5.55;;;;;;;;;;5036718;28;20029;-73
2022/08/03 06:15:14;;;;;;;25.83;5.15;;;;;;;;;;5032234;28;20628;-73
2022/08/03 06:17:49;;;;;;;28.30;4.85;;;;;;;;;;5037323;28;20428;-72
2022/08/03 06:20:16;;;;;;;23.55;4.75;;;;;;;;;;5043711;28;20218;-72
2022/08/03 06:22:41;;;;;;;26.05;4.70;;;;;;;;;;5032388;28;20025;-73
2022/08/03 06:25:07;;;;;;;31.73;5.60;;;;;;;;;;5017916;28;20056;-72
2022/08/03 06:27:32;;;;;;;29.65;5.22;;;;;;;;;;5026750;28;20029;-72
2022/08/03 06:29:57;;;;;;;21.38;4.90;;;;;;;;;;5042168;28;20355;-72
2022/08/03 06:32:25;;;;;;;26.13;4.35;;;;;;;;;;5029970;28;20035;-73
2022/08/03 06:34:53;;;;;;;24.33;5.03;;;;;;;;;;5025355;28;20036;-72
2022/08/03 06:37:22;;;;;;;22.85;4.05;;;;;;;;;;5043548;28;20578;-73
2022/08/03 06:39:47;;;;;;;20.60;4.28;;;;;;;;;;5064658;28;20534;-73
2022/08/03 06:42:12;;;;;;;26.50;4.97;;;;;;;;;;5061291;28;20112;-72
2022/08/03 06:44:38;;;;;;;21.35;4.47;;;;;;;;;;5050837;28;20036;-70
2022/08/03 06:47:03;;;;;;;25.27;4.32;;;;;;;;;;5049025;28;20115;-73
2022/08/03 06:49:31;;;;;;;27.40;4.82;;;;;;;;;;5055693;28;20047;-71
2022/08/03 06:51:57;;;;;;;22.25;4.97;;;;;;;;;;5058928;28;20020;-72
2022/08/03 06:54:23;;;;;;;25.45;4.90;;;;;;;;;;5079257;27;20060;-71
2022/08/03 06:56:48;;;;;;;23.73;4.80;;;;;;;;;;5045092;28;20454;-72
2022/08/03 06:59:14;;;;;;;17.77;4.38;;;;;;;;;;5042466;28;20439;-72
2022/08/03 07:01:39;;;;;;;27.05;4.60;;;;;;;;;;5058511;28;20971;-72
2022/08/03 07:04:04;;;;;;;22.58;4.70;;;;;;;;;;5062048;28;20473;-72
2022/08/03 07:06:30;;;;;;;25.58;4.40;;;;;;;;;;5043132;28;20051;-72
2022/08/03 07:08:55;;;;;;;21.65;4.47;;;;;;;;;;5025206;28;20096;-72
2022/08/03 07:11:21;;;;;;;26.50;5.18;;;;;;;;;;5020587;28;20532;-72
2022/08/03 07:13:49;;;;;;;17.35;4.03;;;;;;;;;;5023169;28;20625;-73
2022/08/03 07:16:15;;;;;;;21.08;4.45;;;;;;;;;;5030312;28;20644;-72
2022/08/03 07:18:40;;;;;;;20.20;4.70;;;;;;;;;;5025952;28;21765;-72
2022/08/03 07:21:07;;;;;;;24.02;5.28;;;;;;;;;;5022708;28;20261;-72
2022/08/03 07:23:33;;;;;;;27.10;5.07;;;;;;;;;;5022105;28;20029;-73
2022/08/03 07:25:58;;;;;;;24.48;5.45;;;;;;;;;;5040362;28;20033;-72
2022/08/03 07:28:23;;;;;;;27.15;5.22;;;;;;;;;;5028231;28;20296;-73
2022/08/03 07:30:49;;;;;;;24.38;5.45;;;;;;;;;;5021993;28;20479;-72
2022/08/03 07:33:14;;;;;;;25.10;4.47;;;;;;;;;;5022737;28;20062;-71
2022/08/03 07:35:39;;;;;;;22.50;5.07;;;;;;;;;;5026551;28;20071;-70
2022/08/03 07:38:05;;;;;;;23.48;5.10;;;;;;;;;;5022361;28;20102;-71
2022/08/03 07:40:33;;;;;;;19.92;4.50;;;;;;;;;;5023891;28;20033;-72
2022/08/03 07:42:59;;;;;;;25.20;4.90;;;;;;;;;;5038715;28;20308;-72
2022/08/03 07:45:25;;;;;;;23.00;4.93;;;;;;;;;;5041352;28;20178;-70
2022/08/03 07:47:50;;;;;;;23.33;5.07;;;;;;;;;;5030776;28;20104;-74
2022/08/03 07:50:15;;;;;;;27.60;4.72;;;;;;;;;;5048221;28;20421;-72
2022/08/03 07:52:48;;;;;;;24.58;4.85;;;;;;;;;;5039874;28;20043;-72
2022/08/03 07:55:13;;;;;;;28.65;5.50;;;;;;;;;;5021941;28;20051;-71
2022/08/03 07:57:38;;;;;;;23.65;5.43;;;;;;;;;;5020787;28;20151;-71
2022/08/03 08:00:05;;;;;;;21.67;4.97;;;;;;;;;;5020108;28;22296;-72
2022/08/03 08:02:30;;;;;;;23.27;5.25;;;;;;;;;;5034228;28;20458;-72
2022/08/03 08:04:55;;;;;;;23.38;5.72;;;;;;;;;;5019079;28;20033;-72
2022/08/03 08:07:24;;;;;;;27.50;5.35;;;;;;;;;;5024578;28;20056;-72
2022/08/03 08:09:50;;;;;;;23.80;5.13;;;;;;;;;;5018365;28;20039;-71
2022/08/03 08:12:16;;;;;;;25.92;5.30;;;;;;;;;;5020047;28;20029;-70
2022/08/03 08:14:44;;;;;;;25.05;4.88;;;;;;;;;;5020302;28;20226;-71
2022/08/03 08:17:09;;;;;;;22.67;5.03;;;;;;;;;;5018093;28;20348;-71
2022/08/03 08:19:37;;;;;;;22.92;5.10;;;;;;;;;;5032209;28;20403;-71
2022/08/03 08:22:02;;;;;;;25.38;5.03;;;;;;;;;;5017646;28;20036;-72
2022/08/03 08:24:29;;;;;;;24.73;5.55;;;;;;;;;;5016558;28;20151;-71
2022/08/03 08:26:55;;;;;;;22.33;4.82;;;;;;;;;;5018777;28;20051;-71
2022/08/03 08:29:22;;;;;;;22.85;5.18;;;;;;;;;;5018618;28;20037;-71
2022/08/03 08:31:47;;;;;;;26.25;4.57;;;;;;;;;;5033109;28;20379;-71
2022/08/03 08:34:13;;;;;;;23.30;4.82;;;;;;;;;;5019475;28;20618;-71
2022/08/03 08:36:38;;;;;;;26.65;5.07;;;;;;;;;;5022068;28;20088;-71
2022/08/03 08:39:03;;;;;;;25.77;5.15;;;;;;;;;;5018163;28;20721;-72
2022/08/03 08:41:32;;;;;;;19.75;5.03;;;;;;;;;;5033005;28;20033;-70
2022/08/03 08:43:57;;;;;;;21.42;4.95;;;;;;;;;;5019606;28;20136;-70
2022/08/03 08:46:23;;;;;;;19.73;5.05;;;;;;;;;;5022664;28;20090;-71
2022/08/03 08:48:49;;;;;;;20.73;5.32;;;;;;;;;;5018347;28;20376;-71
2022/08/03 08:51:15;;;;;;;19.83;4.60;;;;;;;;;;5017329;28;20048;-71
2022/08/03 08:53:42;;;;;;;18.23;4.80;;;;;;;;;;5021976;28;20036;-70
2022/08/03 08:56:11;;;;;;;19.33;4.80;;;;;;;;;;5019143;28;20577;-71
2022/08/03 08:58:40;;;;;;;25.23;5.45;;;;;;;;;;5032011;28;20067;-72
2022/08/03 09:01:08;;;;;;;22.77;4.57;;;;;;;;;;5018633;28;21544;-72
2022/08/03 09:03:36;;;;;;;21.48;4.75;;;;;;;;;;5018351;28;20654;-72
2022/08/03 09:06:02;;;;;;;19.10;4.50;;;;;;;;;;5020188;28;20044;-71
2022/08/03 09:08:28;;;;;;;23.88;4.18;;;;;;;;;;5019548;28;20082;-71
2022/08/03 09:10:55;;;;;;;20.42;4.45;;;;;;;;;;5016583;28;20045;-71
2022/08/03 09:13:21;;;;;;;24.58;4.60;;;;;;;;;;5015855;28;20071;-71
2022/08/03 09:15:46;;;;;;;23.65;5.25;;;;;;;;;;5020084;28;21053;-71
2022/08/03 09:18:14;;;;;;;17.80;4.45;;;;;;;;;;5022303;28;20265;-71
2022/08/03 09:20:39;;;;;;;22.80;4.20;;;;;;;;;;5026178;28;20635;-72
2022/08/03 09:23:09;;;;;;;22.58;4.15;;;;;;;;;;5020993;28;20068;-71
2022/08/03 09:25:36;;;;;;;18.60;4.35;;;;;;;;;;5032233;28;20161;-71
2022/08/03 09:28:07;;;;;;;18.33;4.10;;;;;;;;;;5036406;28;20041;-71
2022/08/03 09:30:32;;;;;;;16.73;3.85;;;;;;;;;;5023156;28;20043;-72
2022/08/03 09:33:02;;;;;;;22.27;4.47;;;;;;;;;;5028364;28;20029;-71
2022/08/03 09:35:28;;;;;;;17.00;3.47;;;;;;;;;;5035433;28;20052;-71
2022/08/03 09:38:09;;;;;;;18.73;3.88;;;;;;;;;;5024143;28;20872;-72
2022/08/03 09:40:35;;;;;;;23.05;3.83;;;;;;;;;;5021119;28;20032;-70
2022/08/03 09:43:01;;;;;;;16.25;3.78;;;;;;;;;;5022368;28;20285;-72
2022/08/03 09:45:26;;;;;;;15.02;3.58;;;;;;;;;;5021328;28;20028;-70
2022/08/03 09:47:52;;;;;;;20.85;3.90;;;;;;;;;;5022103;28;20029;-72
2022/08/03 09:50:17;;;;;;;21.67;3.78;;;;;;;;;;5023189;28;20029;-72
2022/08/03 09:52:43;;;;;;;18.20;3.78;;;;;;;;;;5019625;28;20031;-70
2022/08/03 09:55:09;;;;;;;16.67;3.65;;;;;;;;;;5019608;28;20068;-71
2022/08/03 09:57:45;;;;;;;18.45;3.60;;;;;;;;;;5020642;28;20139;-70
2022/08/03 10:00:11;;;;;;;17.88;3.70;;;;;;;;;;5034221;28;20478;-69
2022/08/03 10:02:37;;;;;;;17.15;4.28;;;;;;;;;;5020489;28;20158;-71
2022/08/03 10:05:02;;;;;;;13.90;3.05;;;;;;;;;;5019195;28;20033;-71
2022/08/03 10:07:42;;;;;;;19.00;3.65;;;;;;;;;;5017987;28;20239;-71
2022/08/03 10:10:09;;;;;;;16.55;3.17;;;;;;;;;;5031550;28;20194;-70
2022/08/03 10:12:38;;;;;;;15.55;3.75;;;;;;;;;;5020467;28;20035;-69
2022/08/03 10:15:04;;;;;;;18.67;3.17;;;;;;;;;;5017412;28;20039;-70
2022/08/03 10:17:29;;;;;;;18.58;4.07;;;;;;;;;;5020427;28;20044;-72
2022/08/03 10:19:55;;;;;;;15.68;3.50;;;;;;;;;;5019547;28;20083;-70
2022/08/03 10:22:24;;;;;;;14.57;3.55;;;;;;;;;;5036788;28;20085;-69
2022/08/03 10:24:55;;;;;;;16.20;3.70;;;;;;;;;;5018351;28;20051;-70
2022/08/03 10:27:20;;;;;;;;;;;;;;;;;;5020785;27;20067;-69
2022/08/03 10:29:49;;;;;;;24.73;4.60;;;;;;;;;;5033408;27;19913;-69
2022/08/03 10:32:44;;;;;;;22.83;3.78;;;;;;;;;;5019114;28;20390;-70
2022/08/03 10:35:15;;;;;;;28.50;4.10;;;;;;;;;;5015832;28;20068;-71
2022/08/03 10:37:47;;;;;;;21.88;4.13;;;;;;;;;;5021546;28;20263;-71
2022/08/03 10:40:14;;;;;;;23.30;4.22;;;;;;;;;;5018798;28;20084;-71
2022/08/03 10:42:40;;;;;;;17.60;3.05;;;;;;;;;;5017673;28;20781;-71
2022/08/03 10:45:11;;;;;;;18.92;3.47;;;;;;;;;;5009596;28;20156;-77
2022/08/03 10:47:39;;;;;;;21.27;3.80;;;;;;;;;;5022080;28;20261;-76
2022/08/03 10:50:07;;;;;;;20.13;3.75;;;;;;;;;;5022106;28;20063;-70
2022/08/03 10:52:32;;;;;;;21.80;3.95;;;;;;;;;;5019195;28;20040;-68
2022/08/03 10:57:54;;;;;;;14.25;3.42;;;;;;;;;;5017962;28;20732;-70
2022/08/03 11:00:20;;;;;;;17.85;3.28;;;;;;;;;;5018106;28;20035;-72
2022/08/03 11:03:05;;;;;;;15.30;3.20;;;;;;;;;;5020836;28;21117;-72
2022/08/03 11:05:32;;;;;;;17.95;3.10;;;;;;;;;;5019769;28;20074;-70
2022/08/03 11:08:18;;;;;;;17.10;3.55;;;;;;;;;;5018424;28;22127;-70
2022/08/03 11:10:43;;;;;;;24.40;4.13;;;;;;;;;;5015345;28;20231;-70
2022/08/03 11:13:09;;;;;;;17.85;3.72;;;;;;;;;;5016973;28;20129;-70
2022/08/03 11:15:35;;;;;;;18.48;3.70;;;;;;;;;;5021794;28;20032;-70
2022/08/03 11:18:07;;;;;;;15.98;3.58;;;;;;;;;;5002201;28;20474;-69
2022/08/03 11:20:43;;;;;;;18.30;3.55;;;;;;;;;;5022309;28;20029;-70
2022/08/03 11:23:08;;;;;;;21.02;3.88;;;;;;;;;;5016476;28;20355;-69
2022/08/03 11:25:53;;;;;;;22.80;3.30;;;;;;;;;;5018568;28;20031;-68
2022/08/03 11:28:32;;;;;;;15.18;3.25;;;;;;;;;;5016616;28;20410;-69
2022/08/03 11:31:17;;;;;;;16.27;3.30;;;;;;;;;;5017849;28;20571;-70
2022/08/03 11:34:01;;;;;;;16.75;3.40;;;;;;;;;;5017737;28;20029;-70
2022/08/03 11:36:29;;;;;;;16.10;3.33;;;;;;;;;;5017412;28;20438;-69
2022/08/03 11:39:11;;;;;;;16.58;3.50;;;;;;;;;;5020171;28;20531;-72
2022/08/03 11:41:36;;;;;;;20.15;3.70;;;;;;;;;;5017301;28;20561;-72
2022/08/03 11:44:04;;;;;;;16.30;3.30;;;;;;;;;;5022451;28;20035;-71
2022/08/03 11:46:38;;;;;;;16.33;3.38;;;;;;;;;;5019583;28;20159;-71
2022/08/03 11:49:05;;;;;;;17.65;3.60;;;;;;;;;;5035050;28;20062;-71
2022/08/03 11:51:33;;;;;;;18.65;4.07;;;;;;;;;;5018345;28;20032;-71
2022/08/03 11:54:00;;;;;;;15.77;3.33;;;;;;;;;;5017394;28;20504;-72
2022/08/03 11:56:26;;;;;;;21.50;4.13;;;;;;;;;;5018287;28;20091;-72
2022/08/03 11:58:54;;;;;;;17.98;3.72;;;;;;;;;;5022469;28;20428;-72
2022/08/03 12:01:20;;;;;;;23.52;4.00;;;;;;;;;;5018385;28;20040;-72
2022/08/03 12:03:46;;;;;;;17.30;3.60;;;;;;;;;;5019677;28;20751;-72
2022/08/03 12:06:12;;;;;;;16.40;3.95;;;;;;;;;;5019361;28;20407;-72
2022/08/03 12:08:39;;;;;;;24.38;4.05;;;;;;;;;;5018962;28;20036;-72
2022/08/03 12:11:07;;;;;;;14.38;3.47;;;;;;;;;;5019696;28;20125;-72
2022/08/03 12:13:37;;;;;;;19.63;3.78;;;;;;;;;;5017258;28;20460;-71
2022/08/03 12:16:02;;;;;;;18.33;3.72;;;;;;;;;;5018569;28;20052;-72
2022/08/03 12:18:31;;;;;;;16.27;3.58;;;;;;;;;;5033467;28;20143;-72
2022/08/03 12:21:04;;;;;;;19.13;3.38;;;;;;;;;;5017929;28;20029;-71
2022/08/03 12:23:29;;;;;;;20.58;4.13;;;;;;;;;;5019383;28;21069;-70
2022/08/03 12:26:00;;;;;;;21.40;4.32;;;;;;;;;;5023853;28;20191;-71
2022/08/03 12:28:25;;;;;;;16.15;3.75;;;;;;;;;;5006281;28;20087;-72
2022/08/03 12:30:51;;;;;;;16.25;3.30;;;;;;;;;;5035674;28;20362;-70
2022/08/03 12:33:20;;;;;;;18.35;3.83;;;;;;;;;;5017412;28;20262;-71
2022/08/03 12:35:50;;;;;;;18.15;4.07;;;;;;;;;;5034496;28;20056;-71
2022/08/03 12:38:20;;;;;;;20.08;3.80;;;;;;;;;;5021209;28;20394;-71
2022/08/03 12:40:53;;;;;;;20.98;4.38;;;;;;;;;;5023337;28;20048;-70
2022/08/03 12:43:23;;;;;;;14.80;3.72;;;;;;;;;;5020739;28;20042;-71
2022/08/03 12:45:48;;;;;;;19.27;3.60;;;;;;;;;;5021084;28;20602;-72
2022/08/03 12:48:13;;;;;;;23.08;4.18;;;;;;;;;;5018516;28;20564;-69
2022/08/03 12:50:40;;;;;;;22.52;3.45;;;;;;;;;;5022770;28;20260;-68
2022/08/03 12:53:06;;;;;;;21.38;3.65;;;;;;;;;;5035861;28;20097;-69
2022/08/03 12:55:35;;;;;;;18.50;3.88;;;;;;;;;;5021908;28;20082;-70
2022/08/03 12:58:05;;;;;;;18.15;3.28;;;;;;;;;;5017819;28;20039;-69
2022/08/03 13:00:31;;;;;;;20.92;3.67;;;;;;;;;;5020586;28;20298;-71
2022/08/03 13:03:01;;;;;;;19.50;4.07;;;;;;;;;;5020681;28;20331;-71
2022/08/03 13:05:26;;;;;;;11.27;3.00;;;;;;;;;;5021814;28;20086;-71
2022/08/03 13:07:52;;;;;;;14.23;3.67;;;;;;;;;;5021584;28;20033;-72
2022/08/03 13:10:30;;;;;;;21.63;3.17;;;;;;;;;;5019491;28;20185;-71
2022/08/03 13:12:58;;;;;;;15.98;3.45;;;;;;;;;;5020419;28;21384;-71
2022/08/03 13:15:26;;;;;;;16.98;3.75;;;;;;;;;;5022785;28;20123;-70
2022/08/03 13:17:54;;;;;;;17.02;3.28;;;;;;;;;;5020472;28;20401;-70
2022/08/03 13:20:20;;;;;;;19.02;3.65;;;;;;;;;;5020303;28;20033;-70
2022/08/03 13:22:46;;;;;;;17.33;3.38;;;;;;;;;;5020955;28;20135;-71
2022/08/03 13:25:16;;;;;;;17.13;3.70;;;;;;;;;;5020587;28;20568;-70
2022/08/03 13:27:41;;;;;;;15.57;3.20;;;;;;;;;;5020424;28;20356;-72
2022/08/03 13:30:07;;;;;;;18.92;3.80;;;;;;;;;;5022598;28;20912;-71
2022/08/03 13:32:34;;;;;;;14.48;3.20;;;;;;;;;;5020834;28;21765;-73
2022/08/03 13:35:02;;;;;;;19.40;3.40;;;;;;;;;;5019520;28;20039;-73
2022/08/03 13:37:30;;;;;;;17.45;3.30;;;;;;;;;;5020181;28;20064;-73
2022/08/03 13:39:56;;;;;;;17.08;3.47;;;;;;;;;;5023856;28;20508;-73
2022/08/03 13:42:21;;;;;;;20.27;3.45;;;;;;;;;;5009109;28;20083;-72
2022/08/03 13:44:46;;;;;;;20.17;3.95;;;;;;;;;;5024882;28;20037;-79
2022/08/03 13:47:12;;;;;;;21.23;3.83;;;;;;;;;;5028286;28;20033;-84
2022/08/03 13:49:37;;;;;;;18.02;3.50;;;;;;;;;;5027475;28;20041;-81
2022/08/03 13:52:05;;;;;;;21.00;3.45;;;;;;;;;;5023509;28;20236;-82
2022/08/03 13:54:32;;;;;;;23.67;4.05;;;;;;;;;;5023788;28;20510;-80
2022/08/03 13:56:58;;;;;;;22.25;3.60;;;;;;;;;;5024399;28;20094;-81
2022/08/03 13:59:24;;;;;;;17.33;3.72;;;;;;;;;;5027069;28;20615;-79
2022/08/03 14:01:49;;;;;;;22.67;3.75;;;;;;;;;;5036738;28;20190;-77
2022/08/03 14:04:15;;;;;;;14.80;3.00;;;;;;;;;;5044746;28;20294;-81
2022/08/03 14:06:43;;;;;;;21.58;3.53;;;;;;;;;;5034005;28;20041;-82
2022/08/03 14:09:08;;;;;;;22.15;4.40;;;;;;;;;;5034515;28;20036;-81
2022/08/03 14:11:34;;;;;;;17.55;3.10;;;;;;;;;;5027726;28;20037;-79
2022/08/03 14:13:59;;;;;;;17.75;3.60;;;;;;;;;;5027566;28;20039;-79
2022/08/03 14:16:25;;;;;;;16.90;3.22;;;;;;;;;;5027693;28;20045;-82
2022/08/03 14:18:50;;;;;;;18.90;3.30;;;;;;;;;;5040752;28;20065;-82
2022/08/03 14:21:15;;;;;;;13.50;3.10;;;;;;;;;;5060772;27;20040;-82
2022/08/03 14:23:40;;;;;;;16.02;3.60;;;;;;;;;;5046612;28;20063;-83
2022/08/03 14:26:09;;;;;;;15.27;3.40;;;;;;;;;;5023620;28;20364;-78
2022/08/03 14:28:34;;;;;;;19.75;3.47;;;;;;;;;;5027283;28;20075;-80
2022/08/03 14:31:02;;;;;;;15.65;3.28;;;;;;;;;;5033418;28;20112;-78
2022/08/03 14:33:27;;;;;;;19.38;3.58;;;;;;;;;;5033772;28;20041;-76
2022/08/03 14:35:55;;;;;;;17.45;3.95;;;;;;;;;;5027515;28;20048;-82
2022/08/03 14:38:21;;;;;;;17.92;3.38;;;;;;;;;;5029353;28;20064;-79
2022/08/03 14:40:46;;;;;;;14.20;3.40;;;;;;;;;;5028818;28;20025;-81
2022/08/03 14:43:11;;;;;;;17.33;3.50;;;;;;;;;;5030151;28;20032;-79